Time;durP1;ratioP1;P1;durP2;ratioP2;P2;SDS_P1;SDS_P2;PMS_P1;PMS_P2;Temp;Humidity;BMP_temperature;BMP_pressure;BME280_temperature;BME280_humidity;BME280_pressure;Samples;Min_cycle;Max_cycle;Signal;HPM_P1;HPM_P2
2022/10/17 00:01:36;;;;;;;9.45;3.28;;;12.30;99.90;;;;;;5048019;28;20029;-70
2022/10/17 00:04:02;;;;;;;22.27;3.30;;;12.40;99.90;;;;;;5049987;28;20025;-63
2022/10/17 00:06:27;;;;;;;14.52;3.38;;;12.30;99.90;;;;;;5047727;28;20434;-63
2022/10/17 00:08:53;;;;;;;11.80;3.40;;;12.20;99.90;;;;;;5047469;28;20040;-63
2022/10/17 00:11:21;;;;;;;12.68;3.40;;;12.20;99.90;;;;;;5049538;28;20718;-65
2022/10/17 00:13:49;;;;;;;6.32;3.03;;;12.20;99.90;;;;;;5047418;28;20064;-65
2022/10/17 00:16:23;;;;;;;12.57;3.10;;;12.10;99.90;;;;;;5049004;28;20040;-64
2022/10/17 00:18:48;;;;;;;7.55;3.10;;;12.10;99.90;;;;;;5048574;28;20048;-66
2022/10/17 00:21:19;;;;;;;6.95;3.17;;;12.10;99.90;;;;;;5049395;28;20064;-66
2022/10/17 00:23:45;;;;;;;7.88;2.80;;;12.10;99.90;;;;;;5048274;28;20101;-65
2022/10/17 00:26:11;;;;;;;10.55;2.95;;;12.00;99.90;;;;;;5049023;28;20048;-63
2022/10/17 00:28:37;;;;;;;8.57;3.47;;;12.10;99.90;;;;;;5049727;28;20033;-68
2022/10/17 00:31:05;;;;;;;10.50;3.17;;;12.10;99.90;;;;;;5045528;28;20061;-61
2022/10/17 00:33:32;;;;;;;4.22;2.83;;;12.10;99.90;;;;;;5037375;28;20032;-66
2022/10/17 00:36:07;;;;;;;10.68;2.90;;;12.10;99.90;;;;;;5047508;28;20229;-66
2022/10/17 00:38:34;;;;;;;10.07;2.72;;;12.20;99.90;;;;;;5048913;28;20456;-66
2022/10/17 00:40:59;;;;;;;8.35;2.53;;;12.20;99.90;;;;;;5047073;28;20580;-64
2022/10/17 00:43:25;;;;;;;10.45;2.83;;;12.20;99.90;;;;;;5049310;28;20072;-63
2022/10/17 00:45:51;;;;;;;4.43;2.67;;;12.20;99.90;;;;;;5046585;28;20033;-63
2022/10/17 00:48:18;;;;;;;5.50;2.83;;;12.20;99.90;;;;;;5048471;28;20033;-64
2022/10/17 00:50:47;;;;;;;7.85;3.13;;;12.20;99.90;;;;;;5046690;28;20033;-63
2022/10/17 00:53:14;;;;;;;11.88;3.22;;;12.10;99.90;;;;;;5048888;28;20029;-63
2022/10/17 00:55:51;;;;;;;5.78;2.85;;;12.10;99.90;;;;;;5042665;28;20033;-68
2022/10/17 00:58:19;;;;;;;6.93;2.65;;;12.10;99.90;;;;;;5046857;28;20048;-61
2022/10/17 01:00:46;;;;;;;7.63;2.85;;;12.00;99.90;;;;;;5046079;28;20060;-67
2022/10/17 01:03:12;;;;;;;5.30;2.88;;;12.00;99.90;;;;;;5046653;28;20025;-63
2022/10/17 01:05:40;;;;;;;9.52;2.67;;;11.90;99.90;;;;;;5050051;28;20051;-63
2022/10/17 01:08:06;;;;;;;17.23;3.20;;;11.80;99.90;;;;;;5044991;28;20036;-63
2022/10/17 01:11:02;;;;;;;15.65;2.72;;;11.80;99.90;;;;;;5048797;28;20029;-65
2022/10/17 01:13:59;;;;;;;5.18;2.83;;;11.80;99.90;;;;;;5040228;28;20366;-65
2022/10/17 01:16:44;;;;;;;8.75;2.60;;;11.80;99.90;;;;;;5044969;28;20033;-63
2022/10/17 01:19:31;;;;;;;7.68;2.70;;;11.80;99.90;;;;;;5046728;28;20065;-61
2022/10/17 01:22:06;;;;;;;8.27;2.78;;;11.80;99.90;;;;;;5046714;28;20033;-66
2022/10/17 01:24:40;;;;;;;6.47;2.60;;;11.70;99.90;;;;;;5040792;28;20431;-63
2022/10/17 01:27:20;;;;;;;4.10;2.10;;;11.70;99.90;;;;;;5048038;28;20049;-63
2022/10/17 01:30:14;;;;;;;8.75;2.50;;;11.70;99.90;;;;;;5046627;28;20171;-64
2022/10/17 01:32:53;;;;;;;6.40;2.55;;;11.60;99.90;;;;;;5045598;28;20383;-69
2022/10/17 01:35:47;;;;;;;5.75;2.60;;;11.60;99.90;;;;;;5028558;28;20037;-64
2022/10/17 01:38:38;;;;;;;6.03;2.53;;;11.60;99.90;;;;;;5044283;28;20033;-63
2022/10/17 01:41:27;;;;;;;4.97;2.80;;;11.60;99.90;;;;;;5045361;28;20068;-66
2022/10/17 01:43:58;;;;;;;6.35;2.22;;;11.60;99.90;;;;;;5047813;28;20053;-63
2022/10/17 01:46:40;;;;;;;3.63;2.42;;;11.60;99.90;;;;;;5046814;28;20028;-65
2022/10/17 01:49:08;;;;;;;7.95;2.95;;;11.60;99.90;;;;;;5046419;28;20168;-62
2022/10/17 01:52:08;;;;;;;13.70;3.05;;;11.50;99.90;;;;;;5046913;28;20477;-65
2022/10/17 01:54:40;;;;;;;7.43;2.60;;;11.50;99.90;;;;;;5006892;28;20480;-65
2022/10/17 01:57:12;;;;;;;9.60;2.58;;;11.50;99.90;;;;;;5045490;28;20194;-62
2022/10/17 01:59:43;;;;;;;5.03;2.35;;;11.40;99.90;;;;;;5046653;28;20145;-65
2022/10/17 02:02:10;;;;;;;6.32;2.55;;;11.40;99.90;;;;;;5048381;28;20128;-64
2022/10/17 02:04:36;;;;;;;6.50;2.47;;;11.40;99.90;;;;;;5046513;28;20044;-65
2022/10/17 02:07:10;;;;;;;7.00;2.40;;;11.40;99.90;;;;;;5047758;28;20559;-62
2022/10/17 02:09:36;;;;;;;10.20;2.63;;;11.40;99.90;;;;;;5045973;28;20028;-63
2022/10/17 02:12:35;;;;;;;13.10;2.67;;;11.40;99.90;;;;;;5046526;28;20032;-63
2022/10/17 02:15:26;;;;;;;15.27;3.08;;;11.40;99.90;;;;;;5036500;28;20478;-64
2022/10/17 02:17:52;;;;;;;6.03;2.40;;;11.40;99.90;;;;;;5041215;28;20031;-66
2022/10/17 02:20:50;;;;;;;10.98;2.70;;;11.40;99.90;;;;;;5046304;28;20032;-62
2022/10/17 02:23:34;;;;;;;3.90;2.17;;;11.40;99.90;;;;;;5043703;28;20032;-63
2022/10/17 02:26:14;;;;;;;8.05;2.20;;;11.30;99.90;;;;;;5045946;28;20043;-66
2022/10/17 02:28:50;;;;;;;4.38;2.13;;;11.30;99.90;;;;;;5041967;28;20034;-65
2022/10/17 02:31:21;;;;;;;9.65;2.80;;;11.20;99.90;;;;;;5049507;28;20063;-64
2022/10/17 02:34:03;;;;;;;9.98;2.40;;;11.20;99.90;;;;;;5047682;28;20033;-71
2022/10/17 02:36:34;;;;;;;6.85;2.30;;;11.20;99.90;;;;;;5046052;28;20029;-64
2022/10/17 02:39:03;;;;;;;5.90;2.25;;;11.20;99.90;;;;;;5045725;28;20025;-63
2022/10/17 02:41:30;;;;;;;5.88;2.60;;;11.20;99.90;;;;;;5046109;28;21790;-64
2022/10/17 02:43:56;;;;;;;6.45;2.50;;;11.20;99.90;;;;;;5044176;28;20053;-63
2022/10/17 02:46:23;;;;;;;9.13;2.42;;;11.20;99.90;;;;;;5049467;28;20528;-64
2022/10/17 02:48:54;;;;;;;15.20;2.75;;;11.20;99.90;;;;;;5063188;28;20644;-71
2022/10/17 02:51:30;;;;;;;6.57;2.28;;;11.20;99.90;;;;;;5049151;28;20064;-65
2022/10/17 02:54:09;;;;;;;10.80;2.40;;;11.10;99.90;;;;;;5051479;28;20037;-65
2022/10/17 02:57:14;;;;;;;8.25;2.30;;;11.00;99.90;;;;;;5049869;28;20112;-64
2022/10/17 02:59:43;;;;;;;5.78;2.10;;;11.00;99.90;;;;;;4987390;28;20162;-63
2022/10/17 03:02:10;;;;;;;7.03;2.10;;;10.90;99.90;;;;;;5040639;28;20904;-64
2022/10/17 03:04:36;;;;;;;6.60;2.20;;;10.80;99.90;;;;;;5048876;28;20029;-62
2022/10/17 03:07:02;;;;;;;5.65;2.38;;;10.70;99.90;;;;;;5050598;28;20045;-65
2022/10/17 03:09:27;;;;;;;5.57;2.15;;;10.80;99.90;;;;;;5050417;28;20032;-63
2022/10/17 03:11:53;;;;;;;6.82;2.42;;;10.80;99.90;;;;;;5047980;28;20036;-65
2022/10/17 03:14:19;;;;;;;7.57;2.58;;;10.90;99.90;;;;;;5051785;28;20486;-66
2022/10/17 03:16:45;;;;;;;5.30;2.30;;;11.00;99.90;;;;;;5050303;28;20071;-64
2022/10/17 03:19:10;;;;;;;9.18;2.63;;;11.00;99.90;;;;;;5050259;28;20136;-62
2022/10/17 03:21:37;;;;;;;14.63;3.85;;;11.00;99.90;;;;;;5049300;28;20029;-64
2022/10/17 03:24:03;;;;;;;8.75;2.47;;;11.00;99.90;;;;;;5051181;28;20036;-64
2022/10/17 03:26:29;;;;;;;9.77;2.40;;;11.00;99.90;;;;;;5050752;28;20524;-64
2022/10/17 03:28:55;;;;;;;9.00;2.20;;;10.90;99.90;;;;;;5047575;28;20037;-63
2022/10/17 03:31:21;;;;;;;12.32;2.35;;;10.90;99.90;;;;;;5043903;28;20030;-64
2022/10/17 03:33:47;;;;;;;3.78;2.00;;;10.90;99.90;;;;;;5046937;28;20127;-66
2022/10/17 03:36:15;;;;;;;4.25;2.15;;;10.80;99.90;;;;;;5049697;28;20111;-65
2022/10/17 03:38:41;;;;;;;5.90;2.13;;;10.80;99.90;;;;;;5051348;28;20453;-62
2022/10/17 03:41:07;;;;;;;9.13;2.30;;;10.70;99.90;;;;;;5050881;28;20096;-62
2022/10/17 03:43:33;;;;;;;10.48;2.17;;;10.60;99.90;;;;;;5051320;28;20060;-66
2022/10/17 03:46:00;;;;;;;7.80;2.20;;;10.60;99.90;;;;;;5050805;28;20044;-67
2022/10/17 03:48:27;;;;;;;3.75;2.15;;;10.60;99.90;;;;;;5051475;28;20091;-64
2022/10/17 03:51:02;;;;;;;6.55;2.22;;;10.60;99.90;;;;;;5050067;28;20063;-69
2022/10/17 03:53:28;;;;;;;3.78;2.08;;;10.60;99.90;;;;;;5031632;28;20398;-65
2022/10/17 03:55:54;;;;;;;9.55;2.00;;;10.60;99.90;;;;;;5030373;28;20087;-66
2022/10/17 03:58:19;;;;;;;7.88;2.10;;;10.60;99.90;;;;;;5033425;28;20059;-64
2022/10/17 04:00:45;;;;;;;8.45;2.20;;;10.60;99.90;;;;;;5050857;28;20028;-63
2022/10/17 04:03:10;;;;;;;3.33;1.90;;;10.50;99.90;;;;;;5049007;28;20028;-63
2022/10/17 04:05:36;;;;;;;11.68;2.70;;;10.50;99.90;;;;;;5050278;28;20036;-64
2022/10/17 04:08:02;;;;;;;5.43;2.30;;;10.50;99.90;;;;;;5044441;28;20524;-65
2022/10/17 04:10:28;;;;;;;5.40;2.25;;;10.50;99.90;;;;;;5036568;28;20044;-64
2022/10/17 04:12:54;;;;;;;5.40;2.20;;;10.50;99.90;;;;;;5045177;28;20473;-70
2022/10/17 04:15:19;;;;;;;8.98;1.95;;;10.40;99.90;;;;;;5029746;28;20043;-65
2022/10/17 04:17:45;;;;;;;10.30;2.38;;;10.40;99.90;;;;;;5037468;28;20031;-62
2022/10/17 04:20:11;;;;;;;9.48;1.80;;;10.40;99.90;;;;;;5050027;28;20600;-64
2022/10/17 04:22:37;;;;;;;5.60;1.92;;;10.40;99.90;;;;;;5049575;28;20424;-64
2022/10/17 04:25:03;;;;;;;6.32;2.17;;;10.40;99.90;;;;;;5049789;28;20022;-63
2022/10/17 04:27:29;;;;;;;5.18;2.10;;;10.30;99.90;;;;;;5050614;28;20106;-63
2022/10/17 04:29:54;;;;;;;4.47;2.28;;;10.30;99.90;;;;;;5049106;28;20033;-69
2022/10/17 04:32:20;;;;;;;5.22;2.70;;;10.30;99.90;;;;;;5050100;28;20099;-64
2022/10/17 04:34:49;;;;;;;10.05;2.17;;;10.30;99.90;;;;;;5050612;28;20033;-62
2022/10/17 04:37:15;;;;;;;8.30;2.53;;;10.30;99.90;;;;;;5048710;28;20037;-63
2022/10/17 04:39:41;;;;;;;5.90;2.25;;;10.30;99.90;;;;;;5050317;28;20032;-64
2022/10/17 04:42:06;;;;;;;6.28;2.33;;;10.40;99.90;;;;;;5049422;28;20075;-63
2022/10/17 04:44:34;;;;;;;8.20;3.17;;;10.40;99.90;;;;;;5050515;28;20517;-65
2022/10/17 04:46:59;;;;;;;5.88;2.60;;;10.30;99.90;;;;;;5049172;28;20090;-64
2022/10/17 04:49:25;;;;;;;8.73;2.08;;;10.20;99.90;;;;;;5050402;28;20025;-63
2022/10/17 04:51:51;;;;;;;4.07;2.13;;;10.10;99.90;;;;;;5049310;28;20032;-63
2022/10/17 04:54:16;;;;;;;10.68;2.10;;;10.10;99.90;;;;;;5049302;28;20025;-65
2022/10/17 04:56:42;;;;;;;3.42;2.10;;;10.10;99.90;;;;;;5050052;28;20389;-64
2022/10/17 04:59:07;;;;;;;5.90;2.05;;;10.10;99.90;;;;;;5045320;28;20374;-62
2022/10/17 05:01:33;;;;;;;6.80;2.47;;;10.10;99.90;;;;;;5049604;28;20800;-66
2022/10/17 05:03:59;;;;;;;9.45;2.42;;;10.10;99.90;;;;;;5049135;28;20040;-66
2022/10/17 05:06:27;;;;;;;6.43;2.13;;;10.10;99.90;;;;;;5046544;28;20036;-64
2022/10/17 05:08:52;;;;;;;4.97;2.60;;;10.10;99.90;;;;;;5048518;28;20041;-65
2022/10/17 05:11:27;;;;;;;11.70;2.63;;;10.00;99.90;;;;;;5049253;28;20033;-66
2022/10/17 05:13:57;;;;;;;9.32;3.40;;;10.00;99.90;;;;;;5049329;28;20048;-63
2022/10/17 05:16:24;;;;;;;12.15;3.10;;;10.00;99.90;;;;;;5049583;28;20119;-66
2022/10/17 05:18:52;;;;;;;7.07;2.78;;;10.00;99.90;;;;;;5049733;28;20517;-62
2022/10/17 05:21:18;;;;;;;8.50;3.30;;;10.00;99.90;;;;;;5047835;28;20829;-64
2022/10/17 05:23:44;;;;;;;5.65;3.20;;;10.00;99.90;;;;;;5049546;28;20040;-65
2022/10/17 05:26:09;;;;;;;7.82;2.63;;;9.90;99.90;;;;;;5048979;28;20776;-65
2022/10/17 05:28:35;;;;;;;11.55;3.10;;;9.90;99.90;;;;;;5049220;28;20115;-64
2022/10/17 05:31:03;;;;;;;8.82;2.60;;;9.90;99.90;;;;;;5044610;28;20116;-64
2022/10/17 05:33:28;;;;;;;4.00;2.55;;;9.90;99.90;;;;;;5045279;28;20033;-68
2022/10/17 05:35:54;;;;;;;7.50;2.58;;;9.90;99.90;;;;;;5047961;28;20040;-71
2022/10/17 05:38:20;;;;;;;10.50;3.10;;;9.90;99.90;;;;;;5048610;28;20118;-67
2022/10/17 05:40:45;;;;;;;4.80;2.53;;;10.00;99.90;;;;;;5048226;28;20110;-64
2022/10/17 05:43:11;;;;;;;6.85;2.65;;;10.00;99.90;;;;;;5047175;28;20049;-65
2022/10/17 05:45:37;;;;;;;8.40;2.45;;;10.00;99.90;;;;;;5046581;28;20053;-63
2022/10/17 05:48:03;;;;;;;7.82;2.30;;;10.00;99.90;;;;;;5048007;28;20448;-62
2022/10/17 05:50:28;;;;;;;15.63;3.13;;;10.00;99.90;;;;;;5045109;28;20139;-64
2022/10/17 05:52:54;;;;;;;13.18;4.28;;;9.90;99.90;;;;;;5046169;28;20053;-64
2022/10/17 05:55:20;;;;;;;10.70;3.85;;;9.90;99.90;;;;;;5047364;28;20032;-66
2022/10/17 05:57:46;;;;;;;10.15;4.38;;;9.90;99.90;;;;;;5045948;28;20129;-64
2022/10/17 06:00:12;;;;;;;8.80;4.75;;;9.80;99.90;;;;;;5047793;28;20099;-66
2022/10/17 06:02:38;;;;;;;13.00;5.38;;;9.80;99.90;;;;;;5046606;28;20816;-62
2022/10/17 06:05:03;;;;;;;17.58;4.63;;;9.70;99.90;;;;;;5045627;28;20061;-64
2022/10/17 06:07:29;;;;;;;13.52;4.30;;;9.70;99.90;;;;;;5042703;28;20045;-66
2022/10/17 06:09:56;;;;;;;7.68;4.03;;;9.80;99.90;;;;;;5046759;28;20488;-65
2022/10/17 06:12:22;;;;;;;13.98;4.43;;;9.90;99.90;;;;;;5050819;28;20029;-66
2022/10/17 06:14:48;;;;;;;9.88;5.13;;;10.00;99.90;;;;;;5047729;28;20092;-64
2022/10/17 06:17:13;;;;;;;17.15;4.88;;;10.10;99.90;;;;;;5046213;28;20059;-66
2022/10/17 06:19:40;;;;;;;12.35;4.82;;;10.10;99.90;;;;;;5043958;28;20493;-63
2022/10/17 06:22:06;;;;;;;15.77;5.18;;;10.10;99.90;;;;;;5047825;28;20083;-64
2022/10/17 06:24:31;;;;;;;11.57;4.55;;;10.10;99.90;;;;;;5047774;28;20057;-64
2022/10/17 06:26:57;;;;;;;11.30;3.90;;;10.10;99.90;;;;;;5047540;28;20210;-66
2022/10/17 06:29:23;;;;;;;14.02;4.38;;;10.10;99.90;;;;;;5044162;28;20044;-66
2022/10/17 06:31:49;;;;;;;11.65;4.32;;;10.20;99.90;;;;;;5045558;28;20028;-63
2022/10/17 06:34:15;;;;;;;8.52;4.20;;;10.20;99.90;;;;;;5046601;28;20041;-68
2022/10/17 06:36:40;;;;;;;13.50;4.60;;;10.20;99.90;;;;;;5040832;28;20040;-65
2022/10/17 06:39:06;;;;;;;10.55;4.93;;;10.30;99.90;;;;;;5047774;28;20559;-66
2022/10/17 06:41:31;;;;;;;15.93;5.35;;;10.30;99.90;;;;;;5051385;28;20028;-65
2022/10/17 06:43:57;;;;;;;8.05;4.13;;;10.40;99.90;;;;;;5053714;28;20080;-66
2022/10/17 06:46:25;;;;;;;12.95;4.60;;;10.40;99.90;;;;;;5055541;28;20083;-67
2022/10/17 06:48:52;;;;;;;18.55;4.85;;;10.40;99.90;;;;;;5055445;28;20040;-64
2022/10/17 06:51:17;;;;;;;25.42;5.13;;;10.40;99.90;;;;;;5048880;28;20417;-62
2022/10/17 06:53:43;;;;;;;12.82;5.38;;;10.30;99.90;;;;;;5055379;28;20028;-65
2022/10/17 06:56:09;;;;;;;14.85;4.30;;;10.30;99.90;;;;;;5050486;28;20443;-64
2022/10/17 06:58:38;;;;;;;13.15;4.75;;;10.40;99.90;;;;;;5047344;28;20033;-62
2022/10/17 07:01:07;;;;;;;10.93;4.40;;;10.40;99.90;;;;;;5043120;28;20028;-68
2022/10/17 07:03:33;;;;;;;10.43;4.35;;;10.40;99.90;;;;;;5047056;28;20029;-66
2022/10/17 07:05:59;;;;;;;15.88;4.38;;;10.40;99.90;;;;;;5048809;28;20508;-65
2022/10/17 07:08:25;;;;;;;11.15;4.30;;;10.50;99.90;;;;;;5056175;28;20048;-63
2022/10/17 07:10:51;;;;;;;15.27;3.80;;;10.50;99.90;;;;;;5050903;28;20112;-65
2022/10/17 07:13:18;;;;;;;7.43;3.65;;;10.60;99.90;;;;;;5052785;28;20541;-64
2022/10/17 07:15:44;;;;;;;16.88;5.22;;;10.70;99.90;;;;;;5053185;28;20477;-65
2022/10/17 07:18:10;;;;;;;11.45;3.65;;;10.80;99.90;;;;;;5054507;28;20072;-63
2022/10/17 07:20:36;;;;;;;9.38;3.80;;;10.90;99.90;;;;;;5051480;28;20061;-64
2022/10/17 07:23:02;;;;;;;13.27;3.80;;;11.00;99.90;;;;;;5045248;28;20029;-69
2022/10/17 07:25:28;;;;;;;14.77;3.90;;;11.20;99.90;;;;;;5048297;28;20069;-64
2022/10/17 07:27:53;;;;;;;15.10;3.75;;;11.20;99.90;;;;;;5046748;28;20064;-65
2022/10/17 07:30:20;;;;;;;10.48;3.42;;;11.30;99.90;;;;;;5039322;28;20100;-64
2022/10/17 07:32:45;;;;;;;13.93;3.63;;;11.30;99.90;;;;;;5047319;28;20033;-64
2022/10/17 07:35:12;;;;;;;10.30;3.60;;;11.50;99.90;;;;;;5047844;28;20033;-66
2022/10/17 07:37:38;;;;;;;8.70;4.10;;;11.70;99.90;;;;;;5049331;28;20033;-66
2022/10/17 07:40:05;;;;;;;9.38;3.75;;;11.80;99.90;;;;;;5047959;28;20037;-69
2022/10/17 07:42:34;;;;;;;7.47;2.95;;;12.00;99.90;;;;;;5049634;28;20037;-66
2022/10/17 07:45:00;;;;;;;10.85;3.60;;;12.20;99.90;;;;;;5047654;28;20053;-65
2022/10/17 07:47:26;;;;;;;13.27;3.17;;;12.30;99.90;;;;;;5049210;28;20564;-65
2022/10/17 07:49:51;;;;;;;16.92;3.50;;;12.40;99.90;;;;;;5051522;28;20151;-68
2022/10/17 07:52:17;;;;;;;7.28;2.78;;;12.50;99.90;;;;;;5049305;28;20114;-66
2022/10/17 07:54:43;;;;;;;30.52;3.53;;;12.70;99.90;;;;;;5049853;28;20080;-66
2022/10/17 07:57:08;;;;;;;6.75;2.95;;;12.80;99.90;;;;;;5047890;28;20040;-67
2022/10/17 07:59:37;;;;;;;12.77;3.30;;;12.80;99.90;;;;;;5050106;28;20044;-67
2022/10/17 08:02:03;;;;;;;10.52;3.10;;;12.90;99.90;;;;;;5050984;28;20064;-67
2022/10/17 08:04:29;;;;;;;14.60;3.30;;;13.10;99.90;;;;;;5048505;28;20040;-66
2022/10/17 08:06:54;;;;;;;5.15;2.95;;;13.30;99.90;;;;;;5050787;28;20025;-67
2022/10/17 08:09:20;;;;;;;6.60;2.83;;;13.50;99.90;;;;;;5049859;28;20115;-66
2022/10/17 08:11:46;;;;;;;14.20;3.65;;;13.70;99.90;;;;;;5050746;28;20036;-68
2022/10/17 08:14:12;;;;;;;5.93;3.22;;;13.90;99.90;;;;;;5050190;28;20024;-67
2022/10/17 08:16:39;;;;;;;8.13;3.20;;;14.10;99.90;;;;;;5061086;28;20098;-67
2022/10/17 08:19:07;;;;;;;7.00;2.92;;;14.30;99.90;;;;;;5063824;28;20036;-69
2022/10/17 08:21:33;;;;;;;6.63;3.00;;;14.50;99.90;;;;;;5049572;28;20033;-67
2022/10/17 08:24:00;;;;;;;11.75;3.70;;;14.70;99.90;;;;;;5051008;28;20488;-67
2022/10/17 08:26:26;;;;;;;7.13;2.85;;;14.90;99.90;;;;;;5049648;28;20025;-68
2022/10/17 08:28:52;;;;;;;11.50;3.30;;;15.10;99.90;;;;;;5050546;28;20043;-66
2022/10/17 08:31:19;;;;;;;9.57;3.25;;;15.30;99.90;;;;;;5049892;28;20017;-65
2022/10/17 08:33:46;;;;;;;11.32;3.65;;;15.60;99.90;;;;;;5048887;28;20473;-66
2022/10/17 08:36:14;;;;;;;16.05;3.13;;;15.80;99.90;;;;;;5049302;28;20033;-66
2022/10/17 08:38:42;;;;;;;11.50;3.30;;;16.00;99.90;;;;;;5049673;28;20048;-68
2022/10/17 08:41:36;;;;;;;9.80;3.53;;;16.40;99.90;;;;;;5050060;28;20060;-70
2022/10/17 08:44:19;;;;;;;10.82;3.25;;;16.70;99.90;;;;;;5023227;28;20099;-66
2022/10/17 08:46:49;;;;;;;7.78;3.03;;;17.00;99.90;;;;;;5050362;28;20029;-66
2022/10/17 08:49:56;;;;;;;6.03;3.15;;;17.10;99.90;;;;;;5048584;28;20039;-66
2022/10/17 08:52:27;;;;;;;7.43;3.47;;;17.40;99.90;;;;;;4987287;28;20150;-66
2022/10/17 08:54:53;;;;;;;8.45;3.55;;;17.60;99.90;;;;;;4988196;28;20038;-68
2022/10/17 08:57:19;;;;;;;10.27;4.13;;;17.80;99.90;;;;;;4987121;28;20243;-65
2022/10/17 08:59:50;;;;;;;11.30;5.18;;;18.00;99.90;;;;;;4988187;28;20038;-66
2022/10/17 09:02:42;;;;;;;8.95;4.30;;;18.20;99.90;;;;;;4986326;28;20034;-65
2022/10/17 09:05:37;;;;;;;8.43;3.40;;;18.30;99.90;;;;;;4987759;28;20037;-71
2022/10/17 09:08:30;;;;;;;5.25;2.92;;;18.50;99.90;;;;;;4987504;28;20049;-66
2022/10/17 09:11:18;;;;;;;10.52;3.17;;;18.80;99.90;;;;;;4987095;28;20039;-66
2022/10/17 09:14:07;;;;;;;8.02;3.00;;;19.00;99.90;;;;;;4948435;28;20046;-66
2022/10/17 09:16:47;;;;;;;13.35;4.13;;;19.30;99.90;;;;;;4987273;28;20162;-67
2022/10/17 09:19:24;;;;;;;6.55;2.80;;;19.50;99.90;;;;;;4986505;28;20044;-68
2022/10/17 09:22:12;;;;;;;7.75;2.50;;;19.80;99.90;;;;;;4987421;28;20057;-67
2022/10/17 09:24:57;;;;;;;15.48;2.90;;;19.90;99.90;;;;;;5049051;28;20029;-67
2022/10/17 09:27:35;;;;;;;9.90;2.72;;;20.00;99.90;;;;;;5047372;28;20065;-67
2022/10/17 09:30:47;;;;;;;5.25;2.80;;;20.10;99.90;;;;;;5029826;28;20025;-67
2022/10/17 09:33:15;;;;;;;10.02;2.97;;;20.20;99.90;;;;;;5004757;28;20497;-68
2022/10/17 09:35:41;;;;;;;7.10;2.85;;;20.40;99.90;;;;;;5038160;28;20033;-66
2022/10/17 09:38:18;;;;;;;7.68;2.80;;;20.50;99.90;;;;;;5060792;28;20473;-68
2022/10/17 09:40:53;;;;;;;10.23;2.40;;;20.70;99.90;;;;;;5069483;28;20028;-67
2022/10/17 09:43:19;;;;;;;7.90;2.58;;;20.90;99.90;;;;;;5059719;28;20048;-68
2022/10/17 09:46:03;;;;;;;8.20;2.35;;;21.10;99.90;;;;;;5047015;28;20047;-67
2022/10/17 09:48:37;;;;;;;5.72;2.30;;;21.30;99.90;;;;;;5043806;28;20687;-67
2022/10/17 09:51:04;;;;;;;5.28;2.22;;;21.40;99.90;;;;;;5046981;28;20025;-66
2022/10/17 09:53:35;;;;;;;4.85;2.60;;;21.50;99.90;;;;;;5047939;28;20257;-65
2022/10/17 09:56:05;;;;;;;6.50;2.42;;;21.70;99.90;;;;;;5050516;28;21229;-66
2022/10/17 09:58:44;;;;;;;;;;;21.80;99.90;;;;;;5046292;28;20024;-67
2022/10/17 10:01:21;;;;;;;3.60;2.33;;;22.00;99.90;;;;;;5045768;28;20380;-71
2022/10/17 10:03:47;;;;;;;4.00;2.38;;;22.00;99.90;;;;;;5057144;28;20032;-69
2022/10/17 10:06:18;;;;;;;3.25;2.20;;;22.20;99.90;;;;;;5046195;28;20033;-69
2022/10/17 10:08:57;;;;;;;4.70;2.40;;;22.40;99.90;;;;;;5041409;28;20045;-69
2022/10/17 10:11:43;;;;;;;5.00;2.40;;;22.50;99.90;;;;;;5049999;28;20028;-65
2022/10/17 10:14:35;;;;;;;7.50;2.58;;;22.70;99.90;;;;;;5046342;28;20152;-66
2022/10/17 10:17:03;;;;;;;7.53;2.40;;;22.80;99.90;;;;;;5044758;28;20045;-67
2022/10/17 10:19:31;;;;;;;5.63;2.30;;;22.90;99.90;;;;;;5041331;28;20061;-67
2022/10/17 10:22:13;;;;;;;9.80;2.80;;;23.00;99.90;;;;;;5048683;28;20976;-65
2022/10/17 10:24:39;;;;;;;3.65;2.03;;;23.00;99.90;;;;;;5050216;28;20497;-67
2022/10/17 10:27:10;;;;;;;4.32;2.28;;;23.10;99.90;;;;;;5046933;28;20036;-69
2022/10/17 10:29:40;;;;;;;8.90;2.58;;;23.10;99.90;;;;;;5041366;28;20029;-64
2022/10/17 10:32:18;;;;;;;8.37;2.30;;;23.10;99.90;;;;;;5048012;28;20493;-67
2022/10/17 10:34:49;;;;;;;6.85;2.42;;;23.20;99.90;;;;;;5042803;28;20108;-65
2022/10/17 10:37:22;;;;;;;7.15;2.78;;;23.10;99.90;;;;;;5043222;28;20040;-70
2022/10/17 10:40:01;;;;;;;4.47;2.83;;;23.20;99.90;;;;;;5042050;28;20493;-68
2022/10/17 10:42:38;;;;;;;7.75;2.97;;;23.20;99.90;;;;;;5042779;28;21691;-66
2022/10/17 10:45:17;;;;;;;9.90;2.72;;;23.30;99.90;;;;;;5041379;28;20057;-66
2022/10/17 10:47:56;;;;;;;14.38;2.70;;;23.30;99.90;;;;;;5046148;28;20175;-64
2022/10/17 10:50:45;;;;;;;12.18;2.50;;;23.40;99.90;;;;;;5058503;28;20036;-65
2022/10/17 10:53:19;;;;;;;7.57;2.50;;;23.40;99.90;;;;;;5039308;28;20041;-66
2022/10/17 10:56:02;;;;;;;4.00;2.10;;;23.60;99.90;;;;;;5045782;28;20078;-69
2022/10/17 10:58:49;;;;;;;4.15;2.47;;;23.80;99.90;;;;;;5039429;28;21091;-66
2022/10/17 11:01:45;;;;;;;8.10;2.50;;;23.90;99.90;;;;;;5044470;28;20032;-69
2022/10/17 11:04:16;;;;;;;10.80;2.63;;;23.90;99.90;;;;;;5043432;28;20051;-68
2022/10/17 11:06:44;;;;;;;6.45;2.80;;;23.70;99.90;;;;;;5047123;28;20413;-66
2022/10/17 11:09:32;;;;;;;3.60;2.42;;;23.60;99.90;;;;;;5049661;28;20045;-65
2022/10/17 11:12:10;;;;;;;5.75;2.58;;;23.60;99.90;;;;;;5051332;28;20033;-64
2022/10/17 11:14:44;;;;;;;4.55;2.25;;;23.60;99.90;;;;;;5045998;28;20638;-65
2022/10/17 11:17:27;;;;;;;9.98;2.42;;;23.60;99.90;;;;;;5044575;28;20200;-66
2022/10/17 11:20:08;;;;;;;4.72;2.10;;;23.70;99.90;;;;;;5043590;28;20021;-69
2022/10/17 11:22:48;;;;;;;5.32;2.20;;;23.80;99.90;;;;;;5045061;28;20079;-69
2022/10/17 11:25:32;;;;;;;4.15;2.35;;;23.70;99.90;;;;;;5050101;28;20632;-71
2022/10/17 11:27:59;;;;;;;3.67;1.98;;;23.70;99.90;;;;;;5046657;28;20049;-67
2022/10/17 11:30:32;;;;;;;4.10;1.70;;;23.80;99.90;;;;;;5045536;28;20037;-69
2022/10/17 11:33:03;;;;;;;2.95;1.60;;;23.80;99.90;;;;;;5046664;28;20494;-69
2022/10/17 11:35:35;;;;;;;3.15;1.85;;;23.90;99.90;;;;;;5051815;28;20034;-72
2022/10/17 11:38:32;;;;;;;6.20;2.25;;;24.00;99.90;;;;;;5044859;28;20052;-65
2022/10/17 11:40:59;;;;;;;5.03;2.10;;;24.20;99.90;;;;;;5046253;28;20519;-67
2022/10/17 11:43:27;;;;;;;5.93;1.88;;;24.40;99.90;;;;;;5041095;28;20057;-69
2022/10/17 11:46:01;;;;;;;4.50;1.73;;;24.50;99.90;;;;;;5046328;28;20041;-64
2022/10/17 11:48:47;;;;;;;5.68;3.08;;;24.50;99.90;;;;;;5041078;28;20029;-67
2022/10/17 11:51:13;;;;;;;8.90;2.50;;;24.50;99.90;;;;;;5045689;28;20033;-66
2022/10/17 11:53:53;;;;;;;10.43;3.38;;;24.50;99.90;;;;;;5049996;28;20040;-67
2022/10/17 11:56:32;;;;;;;6.47;4.00;;;24.50;99.90;;;;;;5048503;28;20029;-70
2022/10/17 11:59:09;;;;;;;9.20;3.63;;;24.60;99.90;;;;;;5040394;28;20055;-64
2022/10/17 12:01:51;;;;;;;8.57;3.72;;;24.70;99.90;;;;;;5049392;28;20044;-67
2022/10/17 12:04:51;;;;;;;9.30;3.05;;;24.80;99.90;;;;;;5044083;28;20033;-71
2022/10/17 12:07:28;;;;;;;6.03;2.55;;;24.90;98.80;;;;;;5049794;28;20040;-69
2022/10/17 12:10:51;;;;;;;6.68;2.20;;;25.10;99.90;;;;;;5048122;28;20065;-67
2022/10/17 12:13:32;;;;;;;5.95;2.10;;;25.40;99.90;;;;;;4997509;28;20036;-69
2022/10/17 12:16:18;;;;;;;5.35;1.90;;;25.50;99.90;;;;;;5021857;28;20078;-65
2022/10/17 12:18:45;;;;;;;8.55;2.10;;;25.40;99.90;;;;;;5025178;28;20111;-64
2022/10/17 12:21:10;;;;;;;5.53;1.90;;;25.40;99.90;;;;;;5028100;28;20502;-65
2022/10/17 12:23:37;;;;;;;3.85;1.67;;;25.40;99.90;;;;;;4997600;28;20034;-68
2022/10/17 12:26:08;;;;;;;5.45;1.90;;;25.40;99.90;;;;;;5016475;28;20033;-67
2022/10/17 12:28:37;;;;;;;8.38;1.98;;;25.60;99.90;;;;;;5016192;28;20048;-66
2022/10/17 12:31:11;;;;;;;4.53;1.80;;;25.60;98.60;;;;;;5020750;28;20414;-66
2022/10/17 12:33:59;;;;;;;5.10;1.75;;;25.40;99.90;;;;;;5010214;28;20707;-64
2022/10/17 12:36:27;;;;;;;6.18;2.05;;;25.40;99.30;;;;;;5027098;28;20047;-64
2022/10/17 12:39:02;;;;;;;7.97;2.20;;;25.40;98.80;;;;;;5026598;28;20044;-64
2022/10/17 12:41:39;;;;;;;6.75;1.88;;;25.40;99.30;;;;;;5026566;28;20394;-65
2022/10/17 12:44:14;;;;;;;6.22;1.60;;;25.40;99.40;;;;;;5035226;28;20059;-65
2022/10/17 12:47:05;;;;;;;4.90;1.70;;;25.30;97.10;;;;;;5040727;28;20028;-65
2022/10/17 12:49:46;;;;;;;3.15;1.40;;;25.10;94.90;;;;;;5047957;28;20040;-63
2022/10/17 12:52:28;;;;;;;3.95;1.58;;;25.00;95.70;;;;;;5050204;28;20032;-64
2022/10/17 12:54:59;;;;;;;8.10;1.45;;;25.10;97.60;;;;;;5049970;28;20045;-64
2022/10/17 12:57:49;;;;;;;6.78;1.67;;;25.10;95.70;;;;;;5049552;28;20031;-63
2022/10/17 13:00:30;;;;;;;6.72;1.60;;;25.00;94.20;;;;;;5050268;28;20033;-66
2022/10/17 13:03:03;;;;;;;8.73;1.75;;;25.00;95.90;;;;;;5050071;28;20049;-64
2022/10/17 13:05:35;;;;;;;3.53;1.73;;;25.00;95.40;;;;;;5049384;28;20520;-65
2022/10/17 13:08:04;;;;;;;4.45;1.48;;;25.00;95.20;;;;;;5049155;28;20037;-64
2022/10/17 13:10:34;;;;;;;3.88;1.77;;;24.80;96.10;;;;;;5049177;28;20125;-66